Time;durP1;ratioP1;P1;durP2;ratioP2;P2;SDS_P1;SDS_P2;PMS_P1;PMS_P2;Temp;Humidity;BMP_temperature;BMP_pressure;BME280_temperature;BME280_humidity;BME280_pressure;Samples;Min_cycle;Max_cycle;Signal;HPM_P1;HPM_P2
2022/09/01 00:01:30;;;;;;;;;;;;;;;;;;5178852;27;19967;-41
2022/09/01 00:04:03;;;;;;;;;;;;;;;;;;5178444;27;19927;-42
2022/09/01 00:06:31;;;;;;;;;;;;;;;;;;5178666;27;20013;-43
2022/09/01 00:09:00;;;;;;;;;;;;;;;;;;5178578;27;19922;-42
2022/09/01 00:11:28;;;;;;;;;;;;;;;;;;5178317;27;19929;-44
2022/09/01 00:13:56;;;;;;;;;;;;;;;;;;5178161;27;19962;-42
2022/09/01 00:16:24;;;;;;;;;;;;;;;;;;5178056;27;20025;-43
2022/09/01 00:18:52;;;;;;;;;;;;;;;;;;5178112;27;20335;-42
2022/09/01 00:21:21;;;;;;;;;;;;;;;;;;5177852;27;19922;-43
2022/09/01 00:23:49;;;;;;;;;;;;;;;;;;5177998;27;19923;-42
2022/09/01 00:26:16;;;;;;;;;;;;;;;;;;5178113;27;19935;-44
2022/09/01 00:28:43;;;;;;;;;;;;;;;;;;5178029;27;20389;-43
2022/09/01 00:31:11;;;;;;;;;;;;;;;;;;5177946;27;19923;-42
2022/09/01 00:33:38;;;;;;;;;;;;;;;;;;5177872;27;20301;-43
2022/09/01 00:36:05;;;;;;;;;;;;;;;;;;5159303;27;19923;-42
2022/09/01 00:38:35;;;;;;;;;;;;;;;;;;5177727;27;19927;-43
2022/09/01 00:41:02;;;;;;;;;;;;;;;;;;5177972;27;19989;-41
2022/09/01 00:43:38;;;;;;;;;;;;;;;;;;5159136;27;19927;-42
2022/09/01 00:46:07;;;;;;;;;;;;;;;;;;5159025;27;19930;-42
2022/09/01 00:48:35;;;;;;;;;;;;;;;;;;5158885;27;19923;-46
2022/09/01 00:51:03;;;;;;;;;;;;;;;;;;5177718;27;19929;-41
2022/09/01 00:53:30;;;;;;;;;;;;;;;;;;5159085;27;19969;-41
2022/09/01 00:55:58;;;;;;;;;;;;;;;;;;5177527;27;20389;-41
2022/09/01 00:58:25;;;;;;;;;;;;;;;;;;5177539;27;20018;-41
2022/09/01 01:00:53;;;;;;;;;;;;;;;;;;5177140;27;19972;-41
2022/09/01 01:03:20;;;;;;;;;;;;;;;;;;5158737;27;19923;-42
2022/09/01 01:05:52;;;;;;;;;;;;;;;;;;5176965;27;19923;-43
2022/09/01 01:08:32;;;;;;;;;;;;;;;;;;5158769;27;19923;-44
2022/09/01 01:11:01;;;;;;;;;;;;;;;;;;5177344;27;20716;-41
2022/09/01 01:13:47;;;;;;;;;;;;;;;;;;5176939;27;19930;-41
2022/09/01 01:16:16;;;;;;;;;;;;;;;;;;5158117;27;20309;-41
2022/09/01 01:18:43;;;;;;;;;;;;;;;;;;5177143;27;19958;-41
2022/09/01 01:24:22;;;;;;;;;;;;;;;;;;5177111;27;19923;-42
2022/09/01 01:26:49;;;;;;;;;;;;;;;;;;5158072;27;20292;-42
2022/09/01 01:29:17;;;;;;;;;;;;;;;;;;5158175;27;19923;-41
2022/09/01 01:31:48;;;;;;;;;;;;;;;;;;5157808;27;20369;-42
2022/09/01 01:34:16;;;;;;;;;;;;;;;;;;5158122;27;19923;-42
2022/09/01 01:36:44;;;;;;;;;;;;;;;;;;5158054;27;19930;-44
2022/09/01 01:39:14;;;;;;;;;;;;;;;;;;5158035;27;19971;-42
2022/09/01 01:41:44;;;;;;;;;;;;;;;;;;5176596;27;19930;-42
2022/09/01 01:44:12;;;;;;;;;;;;;;;;;;5157527;27;19967;-41
2022/09/01 01:46:41;;;;;;;;;;;;;;;;;;5157826;27;19922;-42
2022/09/01 01:49:12;;;;;;;;;;;;;;;;;;5157359;27;19938;-42
2022/09/01 01:51:40;;;;;;;;;;;;;;;;;;5174911;27;19976;-43
2022/09/01 01:54:08;;;;;;;;;;;;;;;;;;5175098;27;19930;-41
2022/09/01 01:56:38;;;;;;;;;;;;;;;;;;5174683;27;19988;-42
2022/09/01 01:59:06;;;;;;;;;;;;;;;;;;5174862;27;19923;-41
2022/09/01 02:01:34;;;;;;;;;;;;;;;;;;5174731;27;19923;-42
2022/09/01 02:04:04;;;;;;;;;;;;;;;;;;5174769;27;19923;-41
2022/09/01 02:06:34;;;;;;;;;;;;;;;;;;5174870;27;19926;-42
2022/09/01 02:09:02;;;;;;;;;;;;;;;;;;5176070;27;19971;-42
2022/09/01 02:11:32;;;;;;;;;;;;;;;;;;5176072;27;19922;-43
2022/09/01 02:14:00;;;;;;;;;;;;;;;;;;5174523;27;19945;-42
2022/09/01 02:16:28;;;;;;;;;;;;;;;;;;5174619;27;19929;-43
2022/09/01 02:18:56;;;;;;;;;;;;;;;;;;5174639;27;19927;-45
2022/09/01 02:21:23;;;;;;;;;;;;;;;;;;5175686;27;20300;-43
2022/09/01 02:23:58;;;;;;;;;;;;;;;;;;5175708;27;19923;-42
2022/09/01 02:26:38;;;;;;;;;;;;;;;;;;5156793;27;19929;-43
2022/09/01 02:29:07;;;;;;;;;;;;;;;;;;5175715;27;19923;-42
2022/09/01 02:31:40;;;;;;;;;;;;;;;;;;5175324;27;20269;-41
2022/09/01 02:34:12;;;;;;;;;;;;;;;;;;5175404;27;19937;-41
2022/09/01 02:36:46;;;;;;;;;;;;;;;;;;5175507;27;19923;-42
2022/09/01 02:39:24;;;;;;;;;;;;;;;;;;5156699;27;19923;-43
2022/09/01 02:41:52;;;;;;;;;;;;;;;;;;5156576;27;19927;-42
2022/09/01 02:44:26;;;;;;;;;;;;;;;;;;5156435;27;19923;-44
2022/09/01 02:46:55;;;;;;;;;;;;;;;;;;5156592;27;20009;-42
2022/09/01 02:49:27;;;;;;;;;;;;;;;;;;5156468;27;19927;-43
2022/09/01 02:52:00;;;;;;;;;;;;;;;;;;5156365;27;20334;-46
2022/09/01 02:54:30;;;;;;;;;;;;;;;;;;5175514;27;19926;-46
2022/09/01 02:57:02;;;;;;;;;;;;;;;;;;5175053;27;19923;-46
2022/09/01 02:59:29;;;;;;;;;;;;;;;;;;5156794;27;19927;-43
2022/09/01 03:01:59;;;;;;;;;;;;;;;;;;5156708;27;20297;-47
2022/09/01 03:04:28;;;;;;;;;;;;;;;;;;5156515;27;20374;-46
2022/09/01 03:06:57;;;;;;;;;;;;;;;;;;5156388;27;19923;-47
2022/09/01 03:09:24;;;;;;;;;;;;;;;;;;5175028;27;19922;-42
2022/09/01 03:12:13;;;;;;;;;;;;;;;;;;5174622;27;20374;-44
2022/09/01 03:14:43;;;;;;;;;;;;;;;;;;5156441;27;20010;-41
2022/09/01 03:17:10;;;;;;;;;;;;;;;;;;5174984;27;19966;-40
2022/09/01 03:19:43;;;;;;;;;;;;;;;;;;5156163;27;19969;-49
2022/09/01 03:22:10;;;;;;;;;;;;;;;;;;5156163;27;19929;-42
2022/09/01 03:24:38;;;;;;;;;;;;;;;;;;5158718;27;19979;-44
2022/09/01 03:27:06;;;;;;;;;;;;;;;;;;5160033;27;20288;-41
2022/09/01 03:29:33;;;;;;;;;;;;;;;;;;5160552;27;19923;-44
2022/09/01 03:32:03;;;;;;;;;;;;;;;;;;5159992;27;19983;-41
2022/09/01 03:34:33;;;;;;;;;;;;;;;;;;5160464;27;19923;-46
2022/09/01 03:37:02;;;;;;;;;;;;;;;;;;5179321;27;20013;-41
2022/09/01 03:39:30;;;;;;;;;;;;;;;;;;5179093;27;19975;-41
2022/09/01 03:41:59;;;;;;;;;;;;;;;;;;5179057;27;19927;-41
2022/09/01 03:44:27;;;;;;;;;;;;;;;;;;5160165;27;19945;-41
2022/09/01 03:46:57;;;;;;;;;;;;;;;;;;5178958;27;19926;-44
2022/09/01 03:49:27;;;;;;;;;;;;;;;;;;5178875;27;19922;-45
2022/09/01 03:51:57;;;;;;;;;;;;;;;;;;5159956;27;19973;-43
2022/09/01 03:54:29;;;;;;;;;;;;;;;;;;5159972;27;20385;-42
2022/09/01 03:56:58;;;;;;;;;;;;;;;;;;5178759;27;19966;-43
2022/09/01 03:59:27;;;;;;;;;;;;;;;;;;5178461;27;19929;-44
2022/09/01 04:01:57;;;;;;;;;;;;;;;;;;5178582;27;19997;-44
2022/09/01 04:04:24;;;;;;;;;;;;;;;;;;5159789;27;19922;-46
2022/09/01 04:06:51;;;;;;;;;;;;;;;;;;5156213;27;19930;-42
2022/09/01 04:09:19;;;;;;;;;;;;;;;;;;5156136;27;19984;-44
2022/09/01 04:11:47;;;;;;;;;;;;;;;;;;5155901;27;19930;-41
2022/09/01 04:14:15;;;;;;;;;;;;;;;;;;5156214;27;19927;-47
2022/09/01 04:19:35;;;;;;;;;;;;;;;;;;5156117;27;19968;-41
2022/09/01 04:22:03;;;;;;;;;;;;;;;;;;5155984;27;19923;-42
2022/09/01 04:24:41;;;;;;;;;;;;;;;;;;5155386;27;20033;-46
2022/09/01 04:27:11;;;;;;;;;;;;;;;;;;5157025;27;19934;-48
2022/09/01 04:29:39;;;;;;;;;;;;;;;;;;5155765;27;19927;-41
2022/09/01 04:32:08;;;;;;;;;;;;;;;;;;5155840;27;19970;-40
2022/09/01 04:34:40;;;;;;;;;;;;;;;;;;5155788;27;20006;-44
2022/09/01 04:37:16;;;;;;;;;;;;;;;;;;5156346;27;20368;-42
2022/09/01 04:39:48;;;;;;;;;;;;;;;;;;5155377;27;19923;-42
2022/09/01 04:42:22;;;;;;;;;;;;;;;;;;5157016;27;20358;-49
2022/09/01 04:44:52;;;;;;;;;;;;;;;;;;5155399;27;19930;-44
2022/09/01 04:47:28;;;;;;;;;;;;;;;;;;5156759;27;19923;-44
2022/09/01 04:49:59;;;;;;;;;;;;;;;;;;5155424;27;19992;-41
2022/09/01 04:52:27;;;;;;;;;;;;;;;;;;5155204;27;19923;-42
2022/09/01 04:54:55;;;;;;;;;;;;;;;;;;5155459;27;20355;-42
2022/09/01 04:57:22;;;;;;;;;;;;;;;;;;5155205;27;19930;-42
2022/09/01 04:59:50;;;;;;;;;;;;;;;;;;5155157;27;19963;-47
2022/09/01 05:02:17;;;;;;;;;;;;;;;;;;5155170;27;19927;-48
2022/09/01 05:04:45;;;;;;;;;;;;;;;;;;5156422;27;19929;-42
2022/09/01 05:07:16;;;;;;;;;;;;;;;;;;5164428;27;19968;-45
2022/09/01 05:09:44;;;;;;;;;;;;;;;;;;5158196;27;19974;-41
2022/09/01 05:12:29;;;;;;;;;;;;;;;;;;5177306;27;20054;-46
2022/09/01 05:14:57;;;;;;;;;;;;;;;;;;5158100;27;19965;-45
2022/09/01 05:17:27;;;;;;;;;;;;;;;;;;5176931;27;19930;-42
2022/09/01 05:19:55;;;;;;;;;;;;;;;;;;5158040;27;20346;-42
2022/09/01 05:22:22;;;;;;;;;;;;;;;;;;5158348;27;19926;-41
2022/09/01 05:25:11;;;;;;;;;;;;;;;;;;5158197;27;19934;-42
2022/09/01 05:27:48;;;;;;;;;;;;;;;;;;5158257;27;19927;-42
2022/09/01 05:30:18;;;;;;;;;;;;;;;;;;5157763;27;20324;-41
2022/09/01 05:32:47;;;;;;;;;;;;;;;;;;5158242;27;19926;-42
2022/09/01 05:35:17;;;;;;;;;;;;;;;;;;5176763;27;20330;-41
2022/09/01 05:37:44;;;;;;;;;;;;;;;;;;5157875;27;20378;-44
2022/09/01 05:40:14;;;;;;;;;;;;;;;;;;5157643;27;19946;-46
2022/09/01 05:42:44;;;;;;;;;;;;;;;;;;5157874;27;19927;-47
2022/09/01 05:45:13;;;;;;;;;;;;;;;;;;5157677;27;19923;-44
2022/09/01 05:47:40;;;;;;;;;;;;;;;;;;5175314;27;20274;-48
2022/09/01 05:50:10;;;;;;;;;;;;;;;;;;5157715;27;19932;-45
2022/09/01 05:52:43;;;;;;;;;;;;;;;;;;5157366;27;19923;-42
2022/09/01 05:55:11;;;;;;;;;;;;;;;;;;5176479;27;19971;-45
2022/09/01 05:57:40;;;;;;;;;;;;;;;;;;5157490;27;19930;-44
2022/09/01 06:00:13;;;;;;;;;;;;;;;;;;5157445;27;19975;-40
2022/09/01 06:02:41;;;;;;;;;;;;;;;;;;5176128;27;19922;-43
2022/09/01 06:05:14;;;;;;;;;;;;;;;;;;5157374;27;19923;-47
2022/09/01 06:07:45;;;;;;;;;;;;;;;;;;5175636;27;20013;-41
2022/09/01 06:10:14;;;;;;;;;;;;;;;;;;5157222;27;19923;-42
2022/09/01 06:12:44;;;;;;;;;;;;;;;;;;5157046;27;19922;-41
2022/09/01 06:15:14;;;;;;;;;;;;;;;;;;5157049;27;19927;-42
2022/09/01 06:17:47;;;;;;;;;;;;;;;;;;5157291;27;19923;-41
2022/09/01 06:20:17;;;;;;;;;;;;;;;;;;5157092;27;20361;-41
2022/09/01 06:22:46;;;;;;;;;;;;;;;;;;5157119;27;19923;-42
2022/09/01 06:25:17;;;;;;;;;;;;;;;;;;5157049;27;20009;-42
2022/09/01 06:27:46;;;;;;;;;;;;;;;;;;5157027;27;20393;-45
2022/09/01 06:30:23;;;;;;;;;;;;;;;;;;5156905;27;19922;-44
2022/09/01 06:33:00;;;;;;;;;;;;;;;;;;5175617;27;19922;-42
2022/09/01 06:35:28;;;;;;;;;;;;;;;;;;5175500;27;20013;-45
2022/09/01 06:38:00;;;;;;;;;;;;;;;;;;5175281;27;19923;-48
2022/09/01 06:40:41;;;;;;;;;;;;;;;;;;5156689;27;19953;-45
2022/09/01 06:43:11;;;;;;;;;;;;;;;;;;5156921;27;19964;-42
2022/09/01 06:45:42;;;;;;;;;;;;;;;;;;5156639;27;20021;-44
2022/09/01 06:48:15;;;;;;;;;;;;;;;;;;5156776;27;20350;-41
2022/09/01 06:50:44;;;;;;;;;;;;;;;;;;5156459;27;20390;-41
2022/09/01 06:53:33;;;;;;;;;;;;;;;;;;5156133;27;20021;-42
2022/09/01 06:56:03;;;;;;;;;;;;;;;;;;5156733;27;19922;-43
2022/09/01 06:58:32;;;;;;;;;;;;;;;;;;5156241;27;19958;-42
2022/09/01 07:01:05;;;;;;;;;;;;;;;;;;5156475;27;19934;-42
2022/09/01 07:03:33;;;;;;;;;;;;;;;;;;5156788;27;20296;-42
2022/09/01 07:06:19;;;;;;;;;;;;;;;;;;5156531;27;19975;-46
2022/09/01 07:09:15;;;;;;;;;;;;;;;;;;5175067;27;19923;-41
2022/09/01 07:12:31;;;;;;;;;;;;;;;;;;5161130;27;19929;-42
2022/09/01 07:15:01;;;;;;;;;;;;;;;;;;5156448;27;19954;-40
2022/09/01 07:17:51;;;;;;;;;;;;;;;;;;5165198;27;19927;-42
2022/09/01 07:20:22;;;;;;;;;;;;;;;;;;5148637;27;19927;-41
2022/09/01 07:22:51;;;;;;;;;;;;;;;;;;5156149;27;19927;-41
2022/09/01 07:25:37;;;;;;;;;;;;;;;;;;5156430;27;19930;-41
2022/09/01 07:28:35;;;;;;;;;;;;;;;;;;5174679;27;20394;-41
2022/09/01 07:31:04;;;;;;;;;;;;;;;;;;5165634;27;19922;-41
2022/09/01 07:33:56;;;;;;;;;;;;;;;;;;5155834;27;19931;-41
2022/09/01 07:36:43;;;;;;;;;;;;;;;;;;5155990;27;20318;-42
2022/09/01 07:39:31;;;;;;;;;;;;;;;;;;5156155;27;20326;-42
2022/09/01 07:42:33;;;;;;;;;;;;;;;;;;5174644;27;19929;-42
2022/09/01 07:45:46;;;;;;;;;;;;;;;;;;5144689;27;19971;-42
2022/09/01 07:48:23;;;;;;;;;;;;;;;;;;5174839;27;19923;-42
2022/09/01 07:51:11;;;;;;;;;;;;;;;;;;5156228;27;20013;-54
2022/09/01 07:54:02;;;;;;;;;;;;;;;;;;5155933;27;19972;-52
2022/09/01 07:56:30;;;;;;;;;;;;;;;;;;5174631;27;19923;-50
2022/09/01 07:59:00;;;;;;;;;;;;;;;;;;5155976;27;20123;-57
2022/09/01 08:01:27;;;;;;;;;;;;;;;;;;5155923;27;20022;-53
2022/09/01 08:03:56;;;;;;;;;;;;;;;;;;5156249;27;19987;-53
2022/09/01 08:06:25;;;;;;;;;;;;;;;;;;5174505;27;19966;-56
2022/09/01 08:08:56;;;;;;;;;;;;;;;;;;5152477;27;19923;-53
2022/09/01 08:11:27;;;;;;;;;;;;;;;;;;5154529;27;20343;-53
2022/09/01 08:14:14;;;;;;;;;;;;;;;;;;5157551;27;20014;-59
2022/09/01 08:16:44;;;;;;;;;;;;;;;;;;5155959;27;19934;-59
2022/09/01 08:19:19;;;;;;;;;;;;;;;;;;5153227;27;20346;-52
2022/09/01 08:22:06;;;;;;;;;;;;;;;;;;5136202;27;20014;-52
2022/09/01 08:24:45;;;;;;;;;;;;;;;;;;5135409;27;19930;-52
2022/09/01 08:27:12;;;;;;;;;;;;;;;;;;5135208;27;19934;-52
2022/09/01 08:29:39;;;;;;;;;;;;;;;;;;5136196;27;19934;-54
2022/09/01 08:32:07;;;;;;;;;;;;;;;;;;5134897;27;19963;-57
2022/09/01 08:34:36;;;;;;;;;;;;;;;;;;5136309;27;20022;-51
2022/09/01 08:37:04;;;;;;;;;;;;;;;;;;5135095;27;19923;-55
2022/09/01 08:39:31;;;;;;;;;;;;;;;;;;5135856;27;19924;-53
2022/09/01 08:42:14;;;;;;;;;;;;;;;;;;5134850;27;19946;-53
2022/09/01 08:45:01;;;;;;;;;;;;;;;;;;5134829;27;20298;-55
2022/09/01 08:47:30;;;;;;;;;;;;;;;;;;5134769;27;19928;-55
2022/09/01 08:50:11;;;;;;;;;;;;;;;;;;5134936;27;19927;-54
2022/09/01 08:53:26;;;;;;;;;;;;;;;;;;5123333;27;19927;-54
2022/09/01 08:55:55;;;;;;;;;;;;;;;;;;5134676;27;20386;-54
2022/09/01 08:58:23;;;;;;;;;;;;;;;;;;5136164;27;20305;-55
2022/09/01 09:01:14;;;;;;;;;;;;;;;;;;5135989;27;20016;-58
2022/09/01 09:03:58;;;;;;;;;;;;;;;;;;5135511;27;19928;-58
2022/09/01 09:06:36;;;;;;;;;;;;;;;;;;5135604;27;19935;-54
2022/09/01 09:09:05;;;;;;;;;;;;;;;;;;5135738;27;20038;-52
2022/09/01 09:11:38;;;;;;;;;;;;;;;;;;5135863;27;19927;-51
2022/09/01 09:14:22;;;;;;;;;;;;;;;;;;5135573;27;19923;-54
2022/09/01 09:16:53;;;;;;;;;;;;;;;;;;5135171;27;19966;-52
2022/09/01 09:19:23;;;;;;;;;;;;;;;;;;5139936;27;19930;-53
2022/09/01 09:21:52;;;;;;;;;;;;;;;;;;5155622;27;19923;-58
2022/09/01 09:24:46;;;;;;;;;;;;;;;;;;5156027;27;20378;-58
2022/09/01 09:27:30;;;;;;;;;;;;;;;;;;5154786;27;19923;-57
2022/09/01 09:29:58;;;;;;;;;;;;;;;;;;5155948;27;19923;-52
2022/09/01 09:32:46;;;;;;;;;;;;;;;;;;5156292;27;20344;-55
2022/09/01 09:35:35;;;;;;;;;;;;;;;;;;5156159;27;19923;-58
2022/09/01 09:38:17;;;;;;;;;;;;;;;;;;5155954;27;19923;-57
2022/09/01 09:40:57;;;;;;;;;;;;;;;;;;5155839;27;19923;-52
2022/09/01 09:43:51;;;;;;;;;;;;;;;;;;5155582;27;19934;-61
2022/09/01 09:46:20;;;;;;;;;;;;;;;;;;5154597;27;19923;-54
2022/09/01 09:49:07;;;;;;;;;;;;;;;;;;5155408;27;19996;-54
2022/09/01 09:51:35;;;;;;;;;;;;;;;;;;5155624;27;20009;-55
2022/09/01 09:54:19;;;;;;;;;;;;;;;;;;5155510;27;20336;-59
2022/09/01 09:56:47;;;;;;;;;;;;;;;;;;5155494;27;20005;-56
2022/09/01 09:59:20;;;;;;;;;;;;;;;;;;5155467;27;20010;-53
2022/09/01 10:02:14;;;;;;;;;;;;;;;;;;5154584;27;19996;-52
2022/09/01 10:04:43;;;;;;;;;;;;;;;;;;5155344;27;19932;-58
2022/09/01 10:07:22;;;;;;;;;;;;;;;;;;5161022;27;20433;-52
2022/09/01 10:09:51;;;;;;;;;;;;;;;;;;5175868;27;19958;-53
2022/09/01 10:12:20;;;;;;;;;;;;;;;;;;5175879;27;19975;-52
2022/09/01 10:14:52;;;;;;;;;;;;;;;;;;5175818;27;19930;-59
2022/09/01 10:17:22;;;;;;;;;;;;;;;;;;5175957;27;19923;-52
2022/09/01 10:20:01;;;;;;;;;;;;;;;;;;5175803;27;19937;-58
2022/09/01 10:22:29;;;;;;;;;;;;;;;;;;5175923;27;19926;-54
2022/09/01 10:24:59;;;;;;;;;;;;;;;;;;5175807;27;19962;-54
2022/09/01 10:27:32;;;;;;;;;;;;;;;;;;5175857;27;19922;-58
2022/09/01 10:30:05;;;;;;;;;;;;;;;;;;5175602;27;19922;-56
2022/09/01 10:32:53;;;;;;;;;;;;;;;;;;5175556;27;19934;-59
2022/09/01 10:35:28;;;;;;;;;;;;;;;;;;5175280;27;19922;-51
2022/09/01 10:37:56;;;;;;;;;;;;;;;;;;5175560;27;19933;-53
2022/09/01 10:40:27;;;;;;;;;;;;;;;;;;5175515;27;19947;-52
2022/09/01 10:42:59;;;;;;;;;;;;;;;;;;5175615;27;19968;-56
2022/09/01 10:45:30;;;;;;;;;;;;;;;;;;5175341;27;20047;-54
2022/09/01 10:48:18;;;;;;;;;;;;;;;;;;5175026;27;20385;-51
2022/09/01 10:51:14;;;;;;;;;;;;;;;;;;5175543;27;19930;-53
2022/09/01 10:53:46;;;;;;;;;;;;;;;;;;5175141;27;20010;-52
2022/09/01 10:56:26;;;;;;;;;;;;;;;;;;5174925;27;19923;-54
2022/09/01 10:59:04;;;;;;;;;;;;;;;;;;5175391;27;19927;-55
2022/09/01 11:01:51;;;;;;;;;;;;;;;;;;5175046;27;19927;-53
2022/09/01 11:04:22;;;;;;;;;;;;;;;;;;5175127;27;19929;-51
2022/09/01 11:06:49;;;;;;;;;;;;;;;;;;5174923;27;19931;-58
2022/09/01 11:09:37;;;;;;;;;;;;;;;;;;5174629;27;19986;-52
2022/09/01 11:12:17;;;;;;;;;;;;;;;;;;5175320;27;19974;-53
2022/09/01 11:14:57;;;;;;;;;;;;;;;;;;5174989;27;20266;-57
2022/09/01 11:17:25;;;;;;;;;;;;;;;;;;5174894;27;19929;-52
2022/09/01 11:20:07;;;;;;;;;;;;;;;;;;5174865;27;20014;-53
2022/09/01 11:22:34;;;;;;;;;;;;;;;;;;5174936;27;19923;-59
2022/09/01 11:25:24;;;;;;;;;;;;;;;;;;5175196;27;20349;-51
2022/09/01 11:27:52;;;;;;;;;;;;;;;;;;5174887;27;19923;-58
2022/09/01 11:30:20;;;;;;;;;;;;;;;;;;5175019;27;19923;-54
2022/09/01 11:32:50;;;;;;;;;;;;;;;;;;5174827;27;19927;-54
2022/09/01 11:35:22;;;;;;;;;;;;;;;;;;5174700;27;19958;-56
2022/09/01 11:37:50;;;;;;;;;;;;;;;;;;5174564;27;20282;-58
2022/09/01 11:40:20;;;;;;;;;;;;;;;;;;5174812;27;20014;-53
2022/09/01 11:42:50;;;;;;;;;;;;;;;;;;5174659;27;19922;-55
2022/09/01 11:45:17;;;;;;;;;;;;;;;;;;5176851;27;19929;-56
2022/09/01 11:47:53;;;;;;;;;;;;;;;;;;5178901;27;19929;-59
2022/09/01 11:50:22;;;;;;;;;;;;;;;;;;5178711;27;20339;-55
2022/09/01 11:52:57;;;;;;;;;;;;;;;;;;5178854;27;20013;-59
2022/09/01 11:55:35;;;;;;;;;;;;;;;;;;5178404;27;19930;-57
2022/09/01 11:58:03;;;;;;;;;;;;;;;;;;5178867;27;19922;-57
2022/09/01 12:00:35;;;;;;;;;;;;;;;;;;5178557;27;19923;-57
2022/09/01 12:03:04;;;;;;;;;;;;;;;;;;5178731;27;19927;-53
2022/09/01 12:05:33;;;;;;;;;;;;;;;;;;5178564;27;19930;-56
2022/09/01 12:08:02;;;;;;;;;;;;;;;;;;5178528;27;19957;-59
2022/09/01 12:10:34;;;;;;;;;;;;;;;;;;5178534;27;19930;-53
2022/09/01 12:13:03;;;;;;;;;;;;;;;;;;5178138;27;19930;-57
2022/09/01 12:15:33;;;;;;;;;;;;;;;;;;5178267;27;19923;-59
2022/09/01 12:18:27;;;;;;;;;;;;;;;;;;5178523;27;20009;-54
2022/09/01 12:21:00;;;;;;;;;;;;;;;;;;5176698;27;20289;-58
2022/09/01 12:23:29;;;;;;;;;;;;;;;;;;5178333;27;19922;-57
2022/09/01 12:26:00;;;;;;;;;;;;;;;;;;5178087;27;20000;-54
2022/09/01 12:28:31;;;;;;;;;;;;;;;;;;5178090;27;20472;-57
2022/09/01 12:31:00;;;;;;;;;;;;;;;;;;5178154;27;19922;-50
2022/09/01 12:33:28;;;;;;;;;;;;;;;;;;5177820;27;20017;-58
2022/09/01 12:36:14;;;;;;;;;;;;;;;;;;5177658;27;19938;-52
2022/09/01 12:38:41;;;;;;;;;;;;;;;;;;5177749;27;19930;-53
2022/09/01 12:41:41;;;;;;;;;;;;;;;;;;5177761;27;19922;-48
2022/09/01 12:44:27;;;;;;;;;;;;;;;;;;5121395;27;19923;-52
2022/09/01 12:46:58;;;;;;;;;;;;;;;;;;5177932;27;19927;-54
2022/09/01 12:49:33;;;;;;;;;;;;;;;;;;5177685;27;20395;-52
2022/09/01 12:52:12;;;;;;;;;;;;;;;;;;5177885;27;19930;-52
2022/09/01 12:54:42;;;;;;;;;;;;;;;;;;5177588;27;20374;-54
2022/09/01 12:57:10;;;;;;;;;;;;;;;;;;5176884;27;19922;-52
2022/09/01 12:59:38;;;;;;;;;;;;;;;;;;5177457;27;19931;-56
2022/09/01 13:02:23;;;;;;;;;;;;;;;;;;5177306;27;19962;-56
2022/09/01 13:04:51;;;;;;;;;;;;;;;;;;5177403;27;20373;-57
2022/09/01 13:07:18;;;;;;;;;;;;;;;;;;5177100;27;19998;-55
2022/09/01 13:09:45;;;;;;;;;;;;;;;;;;5158815;27;19971;-56
2022/09/01 13:12:16;;;;;;;;;;;;;;;;;;5177294;27;20324;-52
2022/09/01 13:14:44;;;;;;;;;;;;;;;;;;5177062;27;20025;-53
2022/09/01 13:17:11;;;;;;;;;;;;;;;;;;5177066;27;20441;-54
2022/09/01 13:19:41;;;;;;;;;;;;;;;;;;5176526;27;20386;-53
2022/09/01 13:22:08;;;;;;;;;;;;;;;;;;5177021;27;20354;-53
2022/09/01 13:24:35;;;;;;;;;;;;;;;;;;5177073;27;19930;-50
2022/09/01 13:27:03;;;;;;;;;;;;;;;;;;5176909;27;20013;-52
2022/09/01 13:29:47;;;;;;;;;;;;;;;;;;5158123;27;20446;-51
2022/09/01 13:32:15;;;;;;;;;;;;;;;;;;5176925;27;19929;-56
2022/09/01 13:34:48;;;;;;;;;;;;;;;;;;5176537;27;19931;-51
2022/09/01 13:37:16;;;;;;;;;;;;;;;;;;5176716;27;19929;-55
2022/09/01 13:39:45;;;;;;;;;;;;;;;;;;5176605;27;19969;-56
2022/09/01 13:42:13;;;;;;;;;;;;;;;;;;5176586;27;20393;-57
2022/09/01 13:44:41;;;;;;;;;;;;;;;;;;5176547;27;19930;-56
2022/09/01 13:47:10;;;;;;;;;;;;;;;;;;5176391;27;19923;-57
2022/09/01 13:49:57;;;;;;;;;;;;;;;;;;5175726;27;20433;-56
2022/09/01 13:52:37;;;;;;;;;;;;;;;;;;5176776;27;19930;-51
2022/09/01 13:55:05;;;;;;;;;;;;;;;;;;5176360;27;19991;-50
2022/09/01 13:57:35;;;;;;;;;;;;;;;;;;5176483;27;19931;-52
2022/09/01 14:00:04;;;;;;;;;;;;;;;;;;5176460;27;20338;-54
2022/09/01 14:02:36;;;;;;;;;;;;;;;;;;5176003;27;19922;-55
2022/09/01 14:05:04;;;;;;;;;;;;;;;;;;5176347;27;19978;-52
2022/09/01 14:07:31;;;;;;;;;;;;;;;;;;5175427;27;19923;-53
2022/09/01 14:09:59;;;;;;;;;;;;;;;;;;5175298;27;19971;-52
2022/09/01 14:12:26;;;;;;;;;;;;;;;;;;5176081;27;20409;-53
2022/09/01 14:14:53;;;;;;;;;;;;;;;;;;5176171;27;20286;-53
2022/09/01 14:17:40;;;;;;;;;;;;;;;;;;5175955;27;20505;-52
2022/09/01 14:20:11;;;;;;;;;;;;;;;;;;5175831;27;19973;-53
2022/09/01 14:22:39;;;;;;;;;;;;;;;;;;5175766;27;20274;-55
2022/09/01 14:25:09;;;;;;;;;;;;;;;;;;5175754;27;19962;-52
2022/09/01 14:27:37;;;;;;;;;;;;;;;;;;5175881;27;19945;-52
2022/09/01 14:30:06;;;;;;;;;;;;;;;;;;5175965;27;19923;-55
2022/09/01 14:32:33;;;;;;;;;;;;;;;;;;5175986;27;20033;-52
2022/09/01 14:35:02;;;;;;;;;;;;;;;;;;5175522;27;19958;-55
2022/09/01 14:37:29;;;;;;;;;;;;;;;;;;5175590;27;19934;-49
2022/09/01 14:39:56;;;;;;;;;;;;;;;;;;5175572;27;20021;-55
2022/09/01 14:42:27;;;;;;;;;;;;;;;;;;5175572;27;19962;-53
2022/09/01 14:44:55;;;;;;;;;;;;;;;;;;5175548;27;19923;-54
2022/09/01 14:47:24;;;;;;;;;;;;;;;;;;5175544;27;20013;-57
2022/09/01 14:49:52;;;;;;;;;;;;;;;;;;5156484;27;19927;-53
2022/09/01 14:52:20;;;;;;;;;;;;;;;;;;5175306;27;19923;-53
2022/09/01 14:54:48;;;;;;;;;;;;;;;;;;5174968;27;20289;-54
2022/09/01 14:57:15;;;;;;;;;;;;;;;;;;5175102;27;19922;-56
2022/09/01 15:00:08;;;;;;;;;;;;;;;;;;5175191;27;19926;-54
2022/09/01 15:02:36;;;;;;;;;;;;;;;;;;5175270;27;19926;-55
2022/09/01 15:05:06;;;;;;;;;;;;;;;;;;5175280;27;19923;-47
2022/09/01 15:07:34;;;;;;;;;;;;;;;;;;5175153;27;19923;-55
2022/09/01 15:10:02;;;;;;;;;;;;;;;;;;5175009;27;20339;-51
2022/09/01 15:12:29;;;;;;;;;;;;;;;;;;5174692;27;19933;-56
2022/09/01 15:14:57;;;;;;;;;;;;;;;;;;5175053;27;19923;-53
2022/09/01 15:17:25;;;;;;;;;;;;;;;;;;5175174;27;19923;-51
2022/09/01 15:19:52;;;;;;;;;;;;;;;;;;5174801;27;19923;-53
2022/09/01 15:22:20;;;;;;;;;;;;;;;;;;5175122;27;19977;-57
2022/09/01 15:24:47;;;;;;;;;;;;;;;;;;5174962;27;20014;-51
2022/09/01 15:27:14;;;;;;;;;;;;;;;;;;5174904;27;19923;-56
2022/09/01 15:29:45;;;;;;;;;;;;;;;;;;5156504;27;20289;-54
2022/09/01 15:32:12;;;;;;;;;;;;;;;;;;5175030;27;20013;-53
2022/09/01 15:34:40;;;;;;;;;;;;;;;;;;5174748;27;19930;-53
2022/09/01 15:37:10;;;;;;;;;;;;;;;;;;5174821;27;20009;-56
2022/09/01 15:39:38;;;;;;;;;;;;;;;;;;5174842;27;20354;-52
2022/09/01 15:42:07;;;;;;;;;;;;;;;;;;5156569;27;19923;-56
2022/09/01 15:44:34;;;;;;;;;;;;;;;;;;5174892;27;20013;-57
2022/09/01 15:47:02;;;;;;;;;;;;;;;;;;5174719;27;19946;-50
2022/09/01 15:49:29;;;;;;;;;;;;;;;;;;5174800;27;19975;-53
2022/09/01 15:51:56;;;;;;;;;;;;;;;;;;5174653;27;19927;-55
2022/09/01 15:54:24;;;;;;;;;;;;;;;;;;5174681;27;19926;-55
2022/09/01 15:56:56;;;;;;;;;;;;;;;;;;5174442;27;20274;-53
2022/09/01 15:59:23;;;;;;;;;;;;;;;;;;5174568;27;19923;-57
2022/09/01 16:01:51;;;;;;;;;;;;;;;;;;5174494;27;19923;-57
2022/09/01 16:04:19;;;;;;;;;;;;;;;;;;5174295;27;19930;-56
2022/09/01 16:06:56;;;;;;;;;;;;;;;;;;5174057;27;19929;-55
2022/09/01 16:09:25;;;;;;;;;;;;;;;;;;5174438;27;19966;-57
2022/09/01 16:11:53;;;;;;;;;;;;;;;;;;5174359;27;20005;-54
2022/09/01 16:14:21;;;;;;;;;;;;;;;;;;5174598;27;19923;-56
2022/09/01 16:17:06;;;;;;;;;;;;;;;;;;5174236;27;20275;-57
2022/09/01 16:19:38;;;;;;;;;;;;;;;;;;5174495;27;20018;-55
2022/09/01 16:22:20;;;;;;;;;;;;;;;;;;5174599;27;19930;-54
2022/09/01 16:24:49;;;;;;;;;;;;;;;;;;5174058;27;19922;-54
2022/09/01 16:27:19;;;;;;;;;;;;;;;;;;5174385;27;20389;-55
2022/09/01 16:29:50;;;;;;;;;;;;;;;;;;5174159;27;19927;-55
2022/09/01 16:32:20;;;;;;;;;;;;;;;;;;5176004;27;19922;-56
2022/09/01 16:34:48;;;;;;;;;;;;;;;;;;5178139;27;20002;-55
2022/09/01 16:37:35;;;;;;;;;;;;;;;;;;5177809;27;19926;-52
2022/09/01 16:40:12;;;;;;;;;;;;;;;;;;5177605;27;19929;-55
2022/09/01 16:42:49;;;;;;;;;;;;;;;;;;5177760;27;19923;-54
2022/09/01 16:45:29;;;;;;;;;;;;;;;;;;5177693;27;19929;-52
2022/09/01 16:48:18;;;;;;;;;;;;;;;;;;5177857;27;19923;-56
2022/09/01 16:50:55;;;;;;;;;;;;;;;;;;5177520;27;19927;-52
2022/09/01 16:53:44;;;;;;;;;;;;;;;;;;5177473;27;20305;-54
2022/09/01 16:56:11;;;;;;;;;;;;;;;;;;5177462;27;19923;-55
2022/09/01 16:58:48;;;;;;;;;;;;;;;;;;5177426;27;20407;-52
2022/09/01 17:01:29;;;;;;;;;;;;;;;;;;5177624;27;19967;-52
2022/09/01 17:04:14;;;;;;;;;;;;;;;;;;5177115;27;19999;-54
2022/09/01 17:06:55;;;;;;;;;;;;;;;;;;5175021;27;19959;-57
2022/09/01 17:09:23;;;;;;;;;;;;;;;;;;5175146;27;20386;-55
2022/09/01 17:12:03;;;;;;;;;;;;;;;;;;5175517;27;19962;-53
2022/09/01 17:14:36;;;;;;;;;;;;;;;;;;5175243;27;20002;-52
2022/09/01 17:17:07;;;;;;;;;;;;;;;;;;5175335;27;20313;-55
2022/09/01 17:19:36;;;;;;;;;;;;;;;;;;5175955;27;20025;-51
2022/09/01 17:22:05;;;;;;;;;;;;;;;;;;5177366;27;19926;-54
2022/09/01 17:24:32;;;;;;;;;;;;;;;;;;5177113;27;19929;-56
2022/09/01 17:27:06;;;;;;;;;;;;;;;;;;5177021;27;20445;-54
2022/09/01 17:29:43;;;;;;;;;;;;;;;;;;5177143;27;19968;-57